Time;durP1;ratioP1;P1;durP2;ratioP2;P2;SDS_P1;SDS_P2;PMS_P1;PMS_P2;Temp;Humidity;BMP_temperature;BMP_pressure;BME280_temperature;BME280_humidity;BME280_pressure;Samples;Min_cycle;Max_cycle;Signal;HPM_P1;HPM_P2
2022/05/07 00:02:16;;;;;;;10.50;9.50;;;16.70;99.90;;;;;;5054369;28;20025;-49
2022/05/07 00:04:43;;;;;;;11.93;10.40;;;16.60;99.90;;;;;;5054486;28;20043;-48
2022/05/07 00:07:09;;;;;;;10.40;9.35;;;16.60;99.90;;;;;;5054521;28;20040;-49
2022/05/07 00:09:36;;;;;;;10.88;9.77;;;16.60;99.90;;;;;;5054142;28;20029;-47
2022/05/07 00:12:02;;;;;;;10.07;9.15;;;16.60;99.90;;;;;;5054122;28;20122;-49
2022/05/07 00:14:27;;;;;;;14.05;10.07;;;16.50;99.90;;;;;;5054278;28;20107;-48
2022/05/07 00:19:37;;;;;;;13.32;11.40;;;16.50;99.90;;;;;;5054258;28;20443;-48
2022/05/07 00:22:03;;;;;;;12.30;10.63;;;16.50;99.90;;;;;;5054086;28;20032;-48
2022/05/07 00:24:29;;;;;;;11.82;10.65;;;16.40;99.90;;;;;;5053998;28;20029;-47
2022/05/07 00:26:55;;;;;;;11.63;10.52;;;16.40;99.90;;;;;;5053960;28;20040;-48
2022/05/07 00:29:21;;;;;;;11.93;10.10;;;16.50;99.90;;;;;;5053810;28;20094;-47
2022/05/07 00:31:46;;;;;;;11.90;10.55;;;16.50;99.90;;;;;;5053792;28;20033;-47
2022/05/07 00:34:12;;;;;;;14.77;11.23;;;16.50;99.90;;;;;;5069207;28;20036;-47
2022/05/07 00:36:38;;;;;;;16.20;10.95;;;16.50;99.90;;;;;;5053823;28;20040;-47
2022/05/07 00:39:04;;;;;;;15.50;12.10;;;16.50;99.90;;;;;;5053709;28;20039;-47
2022/05/07 00:41:30;;;;;;;12.27;10.98;;;16.60;99.90;;;;;;5053693;28;20029;-48
2022/05/07 00:43:55;;;;;;;13.23;11.40;;;16.60;99.90;;;;;;5053442;28;20488;-49
2022/05/07 00:46:26;;;;;;;14.43;12.02;;;16.60;99.90;;;;;;5051690;28;20041;-50
2022/05/07 00:48:53;;;;;;;12.52;10.77;;;16.60;99.90;;;;;;5053573;28;20055;-49
2022/05/07 00:51:35;;;;;;;11.93;10.68;;;16.60;99.90;;;;;;5053503;28;20041;-47
2022/05/07 00:54:06;;;;;;;12.82;11.52;;;16.60;99.90;;;;;;5053142;28;20057;-48
2022/05/07 00:56:32;;;;;;;15.73;13.50;;;16.60;99.90;;;;;;5034984;28;20040;-47
2022/05/07 00:58:59;;;;;;;14.30;12.10;;;16.70;99.90;;;;;;5053369;28;20025;-47
2022/05/07 01:01:25;;;;;;;13.52;11.63;;;16.70;99.90;;;;;;5035066;28;20037;-50
2022/05/07 01:03:52;;;;;;;12.68;11.30;;;16.70;99.90;;;;;;5053231;28;20033;-48
2022/05/07 01:06:18;;;;;;;13.38;11.98;;;16.70;99.90;;;;;;5053403;28;20769;-47
2022/05/07 01:08:47;;;;;;;12.50;11.23;;;16.70;99.90;;;;;;5052466;28;20086;-47
2022/05/07 01:11:18;;;;;;;12.32;11.13;;;16.70;99.90;;;;;;5052642;28;20032;-48
2022/05/07 01:13:45;;;;;;;14.23;11.68;;;16.70;99.90;;;;;;5030914;28;20452;-47
2022/05/07 01:16:14;;;;;;;12.98;11.60;;;16.70;99.90;;;;;;5016709;28;20525;-47
2022/05/07 01:18:41;;;;;;;13.88;12.10;;;16.80;99.90;;;;;;5011537;28;20038;-49
2022/05/07 01:21:15;;;;;;;13.27;11.88;;;16.80;99.90;;;;;;5011458;28;20025;-47
2022/05/07 01:23:43;;;;;;;13.25;11.85;;;16.70;99.90;;;;;;4979090;28;20050;-47
2022/05/07 01:26:09;;;;;;;14.82;12.05;;;16.70;99.90;;;;;;5011280;28;20494;-47
2022/05/07 01:28:35;;;;;;;13.45;12.05;;;16.70;99.90;;;;;;5019580;28;20417;-49
2022/05/07 01:31:01;;;;;;;14.88;13.15;;;16.70;99.90;;;;;;5031017;28;20133;-50
2022/05/07 01:33:27;;;;;;;16.15;12.88;;;16.60;99.90;;;;;;5030992;28;20041;-48
2022/05/07 01:35:53;;;;;;;15.35;12.20;;;16.70;99.90;;;;;;4997940;28;20409;-48
2022/05/07 01:38:19;;;;;;;14.13;12.75;;;16.70;99.90;;;;;;5030858;28;20053;-48
2022/05/07 01:40:45;;;;;;;13.15;11.40;;;16.70;99.90;;;;;;5030972;28;20032;-47
2022/05/07 01:43:11;;;;;;;15.30;12.95;;;16.80;99.90;;;;;;5030847;28;20076;-48
2022/05/07 01:45:36;;;;;;;14.07;12.55;;;16.80;99.90;;;;;;5050144;28;20076;-50
2022/05/07 01:48:11;;;;;;;13.65;12.20;;;16.80;99.90;;;;;;5052879;28;20029;-49
2022/05/07 01:50:39;;;;;;;13.80;12.10;;;16.80;99.90;;;;;;5066772;28;20037;-47
2022/05/07 01:53:07;;;;;;;16.63;13.60;;;16.80;99.90;;;;;;5052703;28;20067;-47
2022/05/07 01:55:33;;;;;;;14.35;12.15;;;16.80;99.90;;;;;;5052888;28;20388;-49
2022/05/07 01:57:59;;;;;;;13.60;11.70;;;16.80;99.90;;;;;;5052661;28;20040;-48
2022/05/07 02:00:25;;;;;;;13.20;11.80;;;16.80;99.90;;;;;;5052780;28;20556;-49
2022/05/07 02:02:51;;;;;;;13.68;11.80;;;16.80;99.90;;;;;;5052779;28;20036;-48
2022/05/07 02:05:17;;;;;;;13.95;12.40;;;16.80;99.90;;;;;;5050927;28;20029;-47
2022/05/07 02:07:44;;;;;;;13.93;12.45;;;16.90;99.90;;;;;;5052651;28;20115;-49
2022/05/07 02:10:10;;;;;;;15.05;12.68;;;16.80;99.90;;;;;;5052651;28;20036;-48
2022/05/07 02:12:36;;;;;;;19.77;13.27;;;16.80;99.90;;;;;;5050719;28;20401;-48
2022/05/07 02:15:02;;;;;;;14.77;11.65;;;16.80;99.90;;;;;;5052645;28;20025;-49
2022/05/07 02:17:28;;;;;;;14.60;12.45;;;16.80;99.90;;;;;;5052728;28;20029;-48
2022/05/07 02:19:53;;;;;;;15.35;12.38;;;16.80;99.90;;;;;;5050643;28;20056;-48
2022/05/07 02:22:19;;;;;;;14.32;12.82;;;16.80;99.90;;;;;;5052462;28;20478;-49
2022/05/07 02:24:46;;;;;;;14.43;12.73;;;16.80;99.90;;;;;;5037439;28;20135;-48
2022/05/07 02:27:12;;;;;;;14.13;12.63;;;16.80;99.90;;;;;;5056533;28;20056;-48
2022/05/07 02:29:38;;;;;;;14.52;12.52;;;16.80;99.90;;;;;;5056149;28;20029;-49
2022/05/07 02:32:05;;;;;;;15.40;13.30;;;16.80;99.90;;;;;;5056142;28;20033;-48
2022/05/07 02:34:35;;;;;;;14.80;12.52;;;16.80;99.90;;;;;;5037692;28;20114;-47
2022/05/07 02:37:02;;;;;;;14.88;13.02;;;16.80;99.90;;;;;;5055809;28;20540;-47
2022/05/07 02:39:28;;;;;;;13.27;11.68;;;16.80;99.90;;;;;;5055983;28;20025;-48
2022/05/07 02:44:39;;;;;;;13.32;12.02;;;16.80;99.90;;;;;;5055959;28;20500;-48
2022/05/07 02:47:05;;;;;;;16.85;13.68;;;16.70;99.90;;;;;;5055924;28;20108;-47
2022/05/07 02:49:31;;;;;;;15.15;13.20;;;16.70;99.90;;;;;;5050547;28;20148;-49
2022/05/07 02:51:57;;;;;;;16.30;12.85;;;16.70;99.90;;;;;;5035634;28;20037;-47
2022/05/07 02:54:23;;;;;;;18.00;13.77;;;16.70;99.90;;;;;;5035563;28;20051;-47
2022/05/07 02:56:49;;;;;;;13.60;12.07;;;16.80;99.90;;;;;;5033907;28;20038;-47
2022/05/07 02:59:14;;;;;;;16.50;12.80;;;16.80;99.90;;;;;;5035887;28;20083;-48
2022/05/07 03:01:43;;;;;;;14.13;12.63;;;16.80;99.90;;;;;;5035933;28;20021;-49
2022/05/07 03:04:09;;;;;;;16.70;13.05;;;16.80;99.90;;;;;;5033923;28;20042;-49
2022/05/07 03:06:38;;;;;;;19.70;14.18;;;16.70;99.90;;;;;;5033742;28;20111;-48
2022/05/07 03:09:05;;;;;;;21.40;14.02;;;16.80;99.90;;;;;;5035571;28;20040;-48
2022/05/07 03:11:33;;;;;;;22.52;13.63;;;16.70;99.90;;;;;;5050699;28;20029;-48
2022/05/07 03:14:03;;;;;;;14.60;13.10;;;16.70;99.90;;;;;;5035607;28;20108;-49
2022/05/07 03:16:29;;;;;;;16.50;13.38;;;16.70;99.90;;;;;;5033553;28;20120;-49
2022/05/07 03:18:55;;;;;;;14.63;12.90;;;16.70;99.90;;;;;;5035407;28;20048;-48
2022/05/07 03:21:21;;;;;;;16.10;13.15;;;16.70;99.90;;;;;;5035269;28;20443;-49
2022/05/07 03:23:46;;;;;;;14.43;12.93;;;16.70;99.90;;;;;;5033212;28;20041;-48
2022/05/07 03:26:13;;;;;;;14.68;12.63;;;16.70;99.90;;;;;;5035174;28;20041;-50
2022/05/07 03:28:39;;;;;;;15.18;13.52;;;16.60;99.90;;;;;;5035266;28;20029;-48
2022/05/07 03:31:06;;;;;;;16.52;14.48;;;16.60;99.90;;;;;;5033338;28;20083;-47
2022/05/07 03:33:32;;;;;;;16.50;14.48;;;16.60;99.90;;;;;;5035096;28;20475;-47
2022/05/07 03:35:58;;;;;;;21.25;15.80;;;16.50;99.90;;;;;;5032317;28;20038;-47
2022/05/07 03:38:24;;;;;;;15.63;14.02;;;16.60;99.90;;;;;;5032746;28;20094;-48
2022/05/07 03:40:50;;;;;;;19.60;15.13;;;16.60;99.90;;;;;;4999829;28;20176;-47
2022/05/07 03:43:16;;;;;;;17.25;15.43;;;16.50;99.90;;;;;;5032945;28;20108;-50
2022/05/07 03:45:42;;;;;;;17.58;15.50;;;16.50;99.90;;;;;;5016009;28;20034;-48
2022/05/07 03:48:09;;;;;;;19.73;14.82;;;16.60;99.90;;;;;;5032746;28;20120;-49
2022/05/07 03:50:35;;;;;;;17.25;15.23;;;16.60;99.90;;;;;;5032532;28;20041;-47
2022/05/07 03:55:46;;;;;;;17.00;14.38;;;16.70;99.90;;;;;;5032737;28;20044;-48
2022/05/07 03:58:15;;;;;;;17.10;14.43;;;16.60;99.90;;;;;;5032493;28;20033;-48
2022/05/07 04:00:42;;;;;;;17.55;14.73;;;16.60;99.90;;;;;;5032344;28;20029;-49
2022/05/07 04:03:08;;;;;;;20.50;15.18;;;16.70;99.90;;;;;;5032394;28;20441;-49
2022/05/07 04:05:34;;;;;;;20.85;15.65;;;16.70;99.90;;;;;;5032333;28;20155;-47
2022/05/07 04:08:00;;;;;;;32.25;23.83;;;16.70;99.90;;;;;;5015509;28;20112;-49
2022/05/07 04:10:26;;;;;;;45.00;34.38;;;16.60;99.90;;;;;;5032323;28;20506;-47
2022/05/07 04:12:52;;;;;;;35.72;28.48;;;16.70;99.90;;;;;;5031951;28;20044;-49
2022/05/07 04:15:18;;;;;;;16.27;14.57;;;16.70;99.90;;;;;;5032754;28;20037;-47
2022/05/07 04:17:44;;;;;;;15.95;14.25;;;16.40;99.90;;;;;;5034192;28;20136;-48
2022/05/07 04:20:11;;;;;;;17.27;14.85;;;16.20;99.90;;;;;;5049387;28;20033;-49
2022/05/07 04:22:37;;;;;;;17.35;14.18;;;16.10;99.90;;;;;;5031711;28;20037;-48
2022/05/07 04:25:06;;;;;;;17.15;14.15;;;15.90;99.90;;;;;;5015222;28;20133;-47
2022/05/07 04:27:32;;;;;;;17.30;15.05;;;15.70;99.90;;;;;;5015965;28;20096;-47
2022/05/07 04:29:58;;;;;;;18.15;14.35;;;15.70;99.90;;;;;;4999019;28;20033;-47
2022/05/07 04:32:25;;;;;;;18.20;15.43;;;15.70;99.90;;;;;;4998866;28;20048;-47
2022/05/07 04:34:51;;;;;;;21.40;16.05;;;15.60;99.90;;;;;;5041245;28;20037;-46
2022/05/07 04:37:17;;;;;;;17.92;16.08;;;15.70;99.90;;;;;;5045051;28;20033;-48
2022/05/07 04:39:43;;;;;;;16.42;14.75;;;15.70;99.90;;;;;;5018402;28;20041;-48
2022/05/07 04:42:09;;;;;;;17.83;15.00;;;15.80;99.90;;;;;;5034934;28;20040;-48
2022/05/07 04:44:35;;;;;;;16.63;14.85;;;15.90;99.90;;;;;;5051469;28;20033;-46
2022/05/07 04:47:01;;;;;;;17.20;13.88;;;15.90;99.90;;;;;;5046133;28;20029;-47
2022/05/07 04:49:27;;;;;;;18.50;15.50;;;16.10;99.90;;;;;;5045350;28;20021;-49
2022/05/07 04:51:53;;;;;;;15.82;14.23;;;16.20;99.90;;;;;;5031797;28;20544;-49
2022/05/07 04:54:22;;;;;;;16.40;14.38;;;16.40;99.90;;;;;;5032898;28;20054;-48
2022/05/07 04:56:49;;;;;;;16.33;14.50;;;16.50;99.90;;;;;;5033652;28;20025;-48
2022/05/07 04:59:15;;;;;;;19.20;15.55;;;16.60;99.90;;;;;;5033766;28;20389;-47
2022/05/07 05:01:42;;;;;;;17.25;15.43;;;16.50;99.90;;;;;;5042367;28;20032;-47
2022/05/07 05:04:07;;;;;;;18.92;15.68;;;16.30;99.90;;;;;;5053319;28;20032;-48
2022/05/07 05:06:33;;;;;;;16.48;14.90;;;16.30;99.90;;;;;;5053403;28;20029;-48
2022/05/07 05:08:59;;;;;;;17.92;14.57;;;16.40;99.90;;;;;;5053334;28;20021;-48
2022/05/07 05:11:25;;;;;;;16.73;14.98;;;16.40;99.90;;;;;;5034793;28;20040;-47
2022/05/07 05:13:51;;;;;;;18.27;13.82;;;16.20;99.90;;;;;;5034964;28;20033;-47
2022/05/07 05:16:17;;;;;;;17.95;14.90;;;16.10;99.90;;;;;;5053348;28;20025;-49
2022/05/07 05:18:43;;;;;;;20.48;18.15;;;16.10;99.90;;;;;;5053196;28;20033;-47
2022/05/07 05:21:09;;;;;;;16.83;15.13;;;16.10;99.90;;;;;;5053099;28;20033;-47
2022/05/07 05:23:34;;;;;;;17.13;14.90;;;16.20;99.90;;;;;;5053190;28;20469;-47
2022/05/07 05:26:00;;;;;;;21.00;15.63;;;16.40;99.90;;;;;;5053488;28;20501;-47
2022/05/07 05:28:26;;;;;;;19.48;13.60;;;16.60;99.90;;;;;;5053008;28;20116;-48
2022/05/07 05:30:52;;;;;;;14.70;13.15;;;17.00;99.90;;;;;;5053096;28;20032;-47
2022/05/07 05:33:21;;;;;;;15.10;12.13;;;17.20;99.90;;;;;;5052969;28;20044;-48
2022/05/07 05:35:48;;;;;;;15.32;13.48;;;17.40;99.90;;;;;;5053225;28;20061;-47
2022/05/07 05:38:15;;;;;;;16.30;13.65;;;17.50;99.90;;;;;;5053078;28;20028;-48
2022/05/07 05:40:41;;;;;;;16.00;13.75;;;17.30;99.90;;;;;;5053005;28;20032;-47
2022/05/07 05:43:08;;;;;;;15.32;13.50;;;17.10;99.90;;;;;;5053236;28;20021;-47
2022/05/07 05:45:34;;;;;;;14.55;12.27;;;16.90;99.90;;;;;;5052878;28;20060;-49
2022/05/07 05:48:04;;;;;;;15.13;12.38;;;16.90;99.90;;;;;;5053068;28;20040;-49
2022/05/07 05:50:31;;;;;;;14.43;12.02;;;17.00;99.90;;;;;;5052845;28;20033;-48
2022/05/07 05:52:59;;;;;;;14.50;13.02;;;16.90;99.90;;;;;;5051356;28;20049;-49
2022/05/07 05:55:25;;;;;;;12.98;11.65;;;16.90;99.90;;;;;;5052673;28;20086;-47
2022/05/07 05:57:51;;;;;;;13.80;12.07;;;17.30;99.90;;;;;;5053189;28;20028;-48
2022/05/07 06:00:17;;;;;;;18.27;12.27;;;17.60;99.90;;;;;;5056717;28;20025;-46
2022/05/07 06:02:44;;;;;;;14.82;10.50;;;;;;;;;;5056843;28;20025;-47
2022/05/07 06:05:11;;;;;;;14.80;10.65;;;;;;;;;;5055062;28;20078;-46
2022/05/07 06:07:37;;;;;;;10.05;8.73;;;;;;;;;;5038293;28;20506;-47
2022/05/07 06:10:04;;;;;;;11.90;10.18;;;18.40;99.90;;;;;;5055688;28;20522;-48
2022/05/07 06:12:30;;;;;;;12.55;10.05;;;18.40;99.90;;;;;;5055720;28;20033;-48
2022/05/07 06:14:56;;;;;;;11.05;10.02;;;18.40;99.90;;;;;;5056831;28;20037;-48
2022/05/07 06:17:23;;;;;;;11.48;10.27;;;18.60;99.90;;;;;;5055012;28;20029;-47
2022/05/07 06:19:49;;;;;;;15.98;11.27;;;18.70;99.90;;;;;;5055191;28;20063;-47
2022/05/07 06:22:15;;;;;;;12.43;10.32;;;18.90;99.90;;;;;;5054697;28;20067;-48
2022/05/07 06:27:28;;;;;;;10.80;8.50;;;19.30;99.90;;;;;;5054052;28;20116;-48
2022/05/07 06:29:54;;;;;;;10.98;9.02;;;19.30;99.90;;;;;;5053794;28;20055;-49
2022/05/07 06:32:20;;;;;;;13.75;9.30;;;19.30;99.90;;;;;;5053055;28;20033;-47
2022/05/07 06:34:48;;;;;;;11.68;9.95;;;19.50;99.90;;;;;;5055545;28;20032;-49
2022/05/07 06:37:14;;;;;;;10.85;9.70;;;19.40;99.90;;;;;;5055760;28;20485;-49
2022/05/07 06:39:40;;;;;;;13.07;9.93;;;19.30;99.90;;;;;;5054627;28;20039;-48
2022/05/07 06:42:07;;;;;;;10.77;9.20;;;19.30;99.90;;;;;;5044913;28;20128;-48
2022/05/07 06:44:33;;;;;;;10.88;9.38;;;19.10;99.90;;;;;;5044929;28;20045;-48
2022/05/07 06:46:59;;;;;;;10.55;9.45;;;19.10;99.90;;;;;;5055522;28;20070;-49
2022/05/07 06:49:25;;;;;;;11.82;9.07;;;;;;;;;;5055175;28;20025;-47
2022/05/07 06:51:51;;;;;;;10.20;9.20;;;19.80;99.90;;;;;;5055182;28;20029;-47
2022/05/07 06:54:17;;;;;;;11.90;9.52;;;19.80;99.90;;;;;;5053486;28;20061;-48
2022/05/07 06:56:43;;;;;;;10.77;8.45;;;19.70;99.90;;;;;;5054088;28;20033;-46
2022/05/07 06:59:10;;;;;;;8.90;7.68;;;19.90;99.90;;;;;;5070190;28;20044;-48
2022/05/07 07:01:37;;;;;;;10.02;8.23;;;20.10;99.90;;;;;;5052542;28;20051;-46
2022/05/07 07:04:03;;;;;;;11.20;7.88;;;20.00;99.90;;;;;;5052993;28;20485;-47
2022/05/07 07:06:29;;;;;;;8.35;7.40;;;19.90;99.90;;;;;;5051811;28;20033;-46
2022/05/07 07:08:55;;;;;;;10.05;6.95;;;20.10;99.90;;;;;;5054393;28;20044;-49
2022/05/07 07:11:21;;;;;;;8.48;7.10;;;20.30;99.90;;;;;;5069234;28;20120;-47
2022/05/07 07:13:48;;;;;;;10.68;7.88;;;20.30;99.90;;;;;;5055243;28;20488;-47
2022/05/07 07:16:13;;;;;;;8.95;7.70;;;20.10;99.90;;;;;;5067150;28;20034;-47
2022/05/07 07:18:40;;;;;;;9.15;8.25;;;20.00;99.90;;;;;;5030899;28;20120;-48
2022/05/07 07:21:06;;;;;;;10.30;7.90;;;20.10;99.90;;;;;;5047519;28;20041;-48
2022/05/07 07:23:32;;;;;;;8.85;7.95;;;19.80;99.90;;;;;;5068264;28;20124;-47
2022/05/07 07:25:58;;;;;;;11.07;8.85;;;20.10;99.90;;;;;;5053151;28;20529;-47
2022/05/07 07:28:24;;;;;;;10.30;8.63;;;20.00;99.90;;;;;;5033504;28;20037;-49
2022/05/07 07:30:51;;;;;;;12.57;9.27;;;19.90;99.90;;;;;;5054773;28;20021;-48
2022/05/07 07:33:17;;;;;;;10.70;8.82;;;19.60;99.90;;;;;;5054539;28;20041;-48
2022/05/07 07:35:43;;;;;;;10.05;9.05;;;19.90;99.90;;;;;;5054854;28;20511;-47
2022/05/07 07:38:10;;;;;;;12.60;9.48;;;19.40;99.90;;;;;;5053580;28;20499;-47
2022/05/07 07:40:36;;;;;;;12.32;9.02;;;19.50;99.90;;;;;;5054859;28;20028;-48
2022/05/07 07:43:02;;;;;;;10.43;9.30;;;19.80;99.90;;;;;;5049569;28;20140;-48
2022/05/07 07:48:14;;;;;;;11.90;10.23;;;20.10;99.90;;;;;;5051115;28;20079;-49
2022/05/07 07:50:41;;;;;;;11.55;9.57;;;20.00;99.90;;;;;;5054108;28;20083;-48
2022/05/07 07:53:10;;;;;;;13.60;9.05;;;20.30;99.90;;;;;;5053889;28;20053;-47
2022/05/07 07:55:36;;;;;;;9.07;8.18;;;;;;;;;;5053136;28;20036;-48
2022/05/07 07:58:05;;;;;;;11.35;9.25;;;20.60;99.90;;;;;;5052833;28;20484;-47
2022/05/07 08:00:32;;;;;;;9.27;7.95;;;20.50;99.90;;;;;;5053488;28;20059;-47
2022/05/07 08:03:04;;;;;;;13.50;9.63;;;20.70;99.90;;;;;;5064519;28;20069;-48
2022/05/07 08:05:33;;;;;;;;;;;20.60;99.90;;;;;;5037428;28;20072;-47
2022/05/07 08:13:37;;;;;;;12.60;9.30;;;20.50;99.90;;;;;;5034544;28;20044;-47
2022/05/07 08:16:04;;;;;;;10.55;8.98;;;20.70;99.90;;;;;;5052362;28;20025;-47
2022/05/07 08:18:30;;;;;;;11.98;10.15;;;20.20;99.90;;;;;;5000734;28;20061;-47
2022/05/07 08:20:57;;;;;;;12.13;10.60;;;20.20;99.90;;;;;;5051556;28;20033;-47
2022/05/07 08:23:24;;;;;;;12.20;10.23;;;20.20;99.90;;;;;;5052384;28;20021;-47
2022/05/07 08:25:50;;;;;;;12.27;10.38;;;20.40;99.90;;;;;;5052398;28;20039;-47
2022/05/07 08:28:16;;;;;;;10.82;9.73;;;;;;;;;;5052866;28;20103;-47
2022/05/07 08:30:43;;;;;;;10.73;9.63;;;;;;;;;;5052939;28;20052;-47
2022/05/07 08:33:09;;;;;;;10.98;9.18;;;20.90;99.90;;;;;;5052647;28;20437;-47
2022/05/07 08:35:35;;;;;;;10.05;9.05;;;;;;;;;;5050666;28;20504;-47
2022/05/07 08:38:01;;;;;;;9.18;8.23;;;;;;;;;;5052383;28;20482;-47
2022/05/07 08:40:28;;;;;;;11.75;8.45;;;;;;;;;;5047204;28;20041;-47
2022/05/07 08:42:54;;;;;;;9.30;8.40;;;22.30;99.90;;;;;;5051578;28;20032;-47
2022/05/07 08:45:20;;;;;;;9.85;8.38;;;22.00;99.90;;;;;;5049777;28;20442;-47
2022/05/07 08:47:47;;;;;;;8.93;8.02;;;22.20;99.90;;;;;;5051892;28;20108;-47
2022/05/07 08:50:14;;;;;;;10.48;8.63;;;;;;;;;;5051886;28;20056;-48
2022/05/07 08:52:43;;;;;;;10.48;9.27;;;;;;;;;;5051385;28;20115;-48
2022/05/07 08:55:14;;;;;;;10.48;9.48;;;;;;;;;;5037754;28;20509;-48
2022/05/07 08:57:40;;;;;;;11.68;10.52;;;;;;;;;;5051620;28;20025;-48
2022/05/07 09:00:08;;;;;;;11.68;10.48;;;;;;;;;;5050153;28;20071;-48
2022/05/07 09:02:38;;;;;;;11.98;10.05;;;;;;;;;;5041073;28;20442;-48
2022/05/07 09:05:05;;;;;;;14.18;10.98;;;23.90;99.90;;;;;;5049776;28;20443;-49
2022/05/07 09:07:31;;;;;;;11.35;10.25;;;24.10;99.90;;;;;;5046750;28;20044;-48
2022/05/07 09:09:57;;;;;;;9.90;9.00;;;24.30;99.90;;;;;;5015260;28;20037;-48
2022/05/07 09:12:24;;;;;;;11.10;9.90;;;;;;;;;;5051890;28;20073;-48
2022/05/07 09:14:50;;;;;;;10.32;9.32;;;25.30;99.90;;;;;;5051895;28;20430;-48
2022/05/07 09:17:19;;;;;;;11.15;9.98;;;24.30;99.90;;;;;;5052035;28;20112;-49
2022/05/07 09:19:44;;;;;;;10.57;9.20;;;23.90;99.90;;;;;;5052097;28;20033;-48
2022/05/07 09:22:11;;;;;;;11.80;9.50;;;23.90;99.90;;;;;;5052431;28;20369;-48
2022/05/07 09:24:50;;;;;;;10.55;9.57;;;24.00;99.90;;;;;;5051280;28;20029;-48
2022/05/07 09:27:17;;;;;;;10.10;9.10;;;;;;;;;;5043599;28;20040;-49
2022/05/07 09:29:43;;;;;;;9.77;8.60;;;24.60;99.90;;;;;;5051187;28;20021;-49
2022/05/07 09:32:13;;;;;;;10.98;9.35;;;25.00;99.90;;;;;;5049830;28;20043;-48
2022/05/07 09:37:58;;;;;;;9.65;8.65;;;;;;;;;;5055864;28;20392;-49
2022/05/07 09:40:24;;;;;;;12.02;10.82;;;;;;;;;;5055991;28;20087;-48
2022/05/07 09:42:50;;;;;;;16.25;11.43;;;24.30;99.90;;;;;;5056178;28;20432;-48
2022/05/07 09:45:17;;;;;;;12.25;10.38;;;23.70;99.90;;;;;;5053364;28;20024;-48
2022/05/07 09:47:44;;;;;;;10.65;9.60;;;23.90;99.90;;;;;;5044255;28;20072;-49
2022/05/07 09:58:45;;;;;;;9.90;8.57;;;24.00;99.90;;;;;;5055796;28;20086;-49
2022/05/07 10:01:29;;;;;;;11.55;8.43;;;23.90;99.90;;;;;;5047684;28;20117;-48
2022/05/07 10:04:23;;;;;;;12.43;9.23;;;23.50;99.90;;;;;;5050315;28;20033;-48
2022/05/07 10:07:21;;;;;;;9.27;8.30;;;23.80;99.90;;;;;;5055755;28;20370;-49
2022/05/07 10:10:17;;;;;;;10.82;9.70;;;24.00;99.90;;;;;;5055532;28;20028;-49
2022/05/07 10:12:45;;;;;;;10.70;8.00;;;23.80;99.90;;;;;;5055360;28;20041;-48
2022/05/07 10:15:15;;;;;;;9.50;6.93;;;23.90;99.90;;;;;;5049847;28;20075;-49
2022/05/07 10:17:44;;;;;;;11.02;8.35;;;24.30;99.90;;;;;;5050195;28;20071;-49
2022/05/07 10:20:12;;;;;;;15.55;12.63;;;24.20;99.90;;;;;;5054919;28;20108;-48
2022/05/07 10:22:39;;;;;;;13.07;7.65;;;24.00;99.90;;;;;;5049580;28;20033;-48
2022/05/07 10:25:12;;;;;;;14.18;11.40;;;23.10;99.90;;;;;;5040255;28;20091;-48
2022/05/07 10:27:41;;;;;;;10.23;7.85;;;23.40;99.90;;;;;;5068595;28;20438;-49
2022/05/07 10:30:16;;;;;;;8.65;7.40;;;23.50;99.90;;;;;;5040702;28;20041;-48
2022/05/07 10:32:49;;;;;;;8.15;7.25;;;23.80;99.90;;;;;;5054024;28;20041;-49
2022/05/07 10:35:15;;;;;;;7.60;6.72;;;23.70;99.90;;;;;;5054727;28;20025;-49
2022/05/07 10:37:43;;;;;;;6.95;6.20;;;23.80;99.90;;;;;;5042757;28;20378;-49
2022/05/07 10:40:11;;;;;;;7.25;6.18;;;23.40;99.90;;;;;;5035236;28;20022;-49
2022/05/07 10:42:40;;;;;;;11.52;7.05;;;23.20;99.90;;;;;;5077746;28;20047;-50
2022/05/07 10:45:19;;;;;;;6.43;5.55;;;23.30;99.90;;;;;;5044793;28;20029;-48
2022/05/07 10:47:55;;;;;;;9.95;6.57;;;;;;;;;;5052189;28;20071;-49
2022/05/07 10:50:23;;;;;;;9.15;5.95;;;22.30;99.90;;;;;;5052074;28;20043;-50
2022/05/07 10:52:56;;;;;;;8.88;6.10;;;22.10;99.90;;;;;;5051633;28;20513;-49
2022/05/07 10:55:26;;;;;;;8.18;5.60;;;22.40;99.90;;;;;;5054446;28;20033;-49
2022/05/07 10:57:55;;;;;;;10.73;6.45;;;22.40;99.90;;;;;;5018703;28;20045;-49
2022/05/07 11:00:23;;;;;;;10.32;7.25;;;22.10;99.90;;;;;;5053569;28;20492;-49
2022/05/07 11:02:50;;;;;;;8.70;6.53;;;21.80;99.90;;;;;;5054356;28;20116;-49
2022/05/07 11:05:17;;;;;;;11.60;7.15;;;21.90;99.90;;;;;;5049842;28;20042;-49
2022/05/07 11:07:44;;;;;;;9.35;5.88;;;22.30;99.90;;;;;;5051589;28;20480;-48
2022/05/07 11:10:11;;;;;;;7.38;6.53;;;22.60;99.90;;;;;;5033267;28;20053;-49
2022/05/07 11:12:36;;;;;;;10.93;6.68;;;22.90;99.90;;;;;;5068428;28;20086;-49
2022/05/07 11:15:07;;;;;;;8.88;6.10;;;22.80;99.90;;;;;;5053737;28;20033;-49
2022/05/07 11:17:35;;;;;;;7.82;6.15;;;22.90;99.90;;;;;;5018209;28;20408;-49
2022/05/07 11:20:02;;;;;;;7.05;6.35;;;22.80;99.90;;;;;;5051475;28;20057;-49
2022/05/07 11:22:31;;;;;;;7.55;5.95;;;22.60;99.90;;;;;;5053530;28;20381;-48
2022/05/07 11:25:01;;;;;;;11.63;6.55;;;22.80;99.90;;;;;;5052772;28;20054;-49
2022/05/07 11:27:34;;;;;;;7.57;5.25;;;22.90;99.90;;;;;;5045966;28;20485;-48
2022/05/07 11:30:03;;;;;;;9.85;6.03;;;22.90;99.90;;;;;;5053324;28;20025;-49
2022/05/07 11:32:39;;;;;;;10.02;6.18;;;23.00;99.90;;;;;;5054733;28;21115;-48
2022/05/07 11:35:06;;;;;;;10.52;5.88;;;23.40;99.90;;;;;;5049684;28;20069;-49
2022/05/07 11:37:44;;;;;;;11.30;6.47;;;23.40;99.90;;;;;;5034232;28;20036;-50
2022/05/07 11:40:12;;;;;;;9.48;5.85;;;23.70;99.90;;;;;;5052949;28;20033;-48
2022/05/07 11:42:46;;;;;;;8.98;5.05;;;23.60;99.90;;;;;;5053305;28;20028;-48
2022/05/07 11:45:29;;;;;;;9.07;6.15;;;23.60;99.90;;;;;;5052916;28;20039;-50
2022/05/07 11:48:07;;;;;;;9.73;4.68;;;23.60;99.90;;;;;;5050490;28;20040;-48
2022/05/07 11:50:41;;;;;;;7.85;5.30;;;23.70;99.90;;;;;;5052913;28;20044;-48
2022/05/07 11:53:11;;;;;;;8.40;4.75;;;24.10;99.90;;;;;;5051154;28;20091;-48
2022/05/07 11:55:37;;;;;;;8.63;5.18;;;24.20;99.90;;;;;;5052844;28;20089;-49
2022/05/07 11:58:12;;;;;;;6.80;3.50;;;;;;;;;;5053415;28;20111;-49
2022/05/07 12:00:42;;;;;;;9.70;5.25;;;24.30;99.90;;;;;;5053360;28;20037;-49
2022/05/07 12:03:09;;;;;;;7.40;3.72;;;23.90;99.90;;;;;;5052499;28;20052;-47
2022/05/07 12:05:43;;;;;;;7.07;3.67;;;24.10;99.90;;;;;;5063762;28;20052;-48
2022/05/07 12:08:14;;;;;;;6.80;3.25;;;24.20;99.90;;;;;;5048868;28;20067;-49
2022/05/07 12:10:39;;;;;;;6.60;3.90;;;24.50;99.90;;;;;;5052489;28;20389;-49
2022/05/07 12:13:05;;;;;;;6.57;2.60;;;;;;;;;;5052959;28;20036;-49
2022/05/07 12:18:17;;;;;;;6.97;2.45;;;;;;;;;;5051979;28;20071;-48
2022/05/07 12:20:43;;;;;;;7.75;3.28;;;;;;;;;;5051190;28;20447;-48
2022/05/07 12:31:22;;;;;;;3.67;2.60;;;;;;;;;;5051295;28;20044;-49
2022/05/07 12:33:48;;;;;;;7.78;4.57;;;;;;;;;;5052754;28;20120;-48
2022/05/07 12:36:16;;;;;;;5.43;2.72;;;;;;;;;;5049384;28;20120;-48
2022/05/07 12:38:43;;;;;;;5.15;2.70;;;;;;;;;;5060921;28;20428;-49
2022/05/07 12:41:09;;;;;;;5.97;2.80;;;;;;;;;;5062691;28;20032;-49
2022/05/07 12:43:35;;;;;;;11.10;3.00;;;;;;;;;;5055009;28;20031;-48
2022/05/07 12:46:01;;;;;;;16.55;2.88;;;;;;;;;;5052881;28;20107;-48
2022/05/07 12:48:28;;;;;;;8.27;2.60;;;;;;;;;;5051550;28;20033;-48
2022/05/07 12:50:54;;;;;;;5.80;2.20;;;;;;;;;;5049220;28;20408;-49
2022/05/07 12:53:20;;;;;;;4.65;2.80;;;24.90;90.60;;;;;;5051067;28;20412;-50
2022/05/07 12:55:47;;;;;;;5.20;2.75;;;24.90;91.30;;;;;;5048635;28;20041;-48
2022/05/07 12:58:13;;;;;;;5.53;3.05;;;24.60;91.40;;;;;;5049501;28;20598;-49
2022/05/07 13:00:40;;;;;;;4.28;2.75;;;24.40;91.40;;;;;;5050914;28;20385;-50
2022/05/07 13:03:07;;;;;;;4.25;2.40;;;24.40;91.40;;;;;;5032646;28;20041;-49
2022/05/07 13:05:36;;;;;;;15.45;3.30;;;24.20;91.40;;;;;;5050079;28;20516;-49
2022/05/07 13:08:05;;;;;;;5.63;2.53;;;24.10;91.70;;;;;;5032621;28;20238;-48
2022/05/07 13:10:33;;;;;;;7.28;3.05;;;24.10;91.60;;;;;;5032526;28;20106;-48
2022/05/07 13:13:02;;;;;;;4.97;2.88;;;24.10;91.20;;;;;;5050517;28;20048;-48
2022/05/07 13:15:29;;;;;;;5.95;2.83;;;24.10;92.80;;;;;;5050888;28;20029;-48
2022/05/07 13:17:57;;;;;;;5.38;2.53;;;24.00;91.10;;;;;;5048969;28;20074;-48
2022/05/07 13:20:24;;;;;;;6.72;3.10;;;24.10;91.70;;;;;;5050576;28;20484;-49
2022/05/07 13:22:49;;;;;;;9.25;3.15;;;24.00;90.90;;;;;;5051028;28;20029;-48
2022/05/07 13:25:15;;;;;;;7.93;3.20;;;24.30;91.80;;;;;;5050487;28;20032;-48
2022/05/07 13:27:41;;;;;;;8.70;3.67;;;24.40;90.60;;;;;;5021914;28;20102;-49
2022/05/07 13:30:07;;;;;;;5.78;2.92;;;24.60;90.50;;;;;;5049159;28;20444;-48